sensor_id;sensor_type;location;lat;lon;timestamp;P1;durP1;ratioP1;P2;durP2;ratioP2
7171;SDS011;3627;46.544;14.944;2023-04-08T00:01:32;8.95;;;6.57;;
7171;SDS011;3627;46.544;14.944;2023-04-08T00:03:58;9.85;;;6.75;;
7171;SDS011;3627;46.544;14.944;2023-04-08T00:06:24;10.45;;;7.20;;
7171;SDS011;3627;46.544;14.944;2023-04-08T00:08:51;9.82;;;7.18;;
7171;SDS011;3627;46.544;14.944;2023-04-08T00:11:18;7.60;;;6.55;;
7171;SDS011;3627;46.544;14.944;2023-04-08T00:13:45;9.27;;;7.55;;
7171;SDS011;3627;46.544;14.944;2023-04-08T00:16:12;9.63;;;7.32;;
7171;SDS011;3627;46.544;14.944;2023-04-08T00:18:38;7.85;;;7.05;;
7171;SDS011;3627;46.544;14.944;2023-04-08T00:21:05;10.18;;;7.30;;
7171;SDS011;3627;46.544;14.944;2023-04-08T00:23:31;12.43;;;7.13;;
7171;SDS011;3627;46.544;14.944;2023-04-08T00:25:58;11.23;;;7.40;;
7171;SDS011;3627;46.544;14.944;2023-04-08T00:28:24;10.32;;;7.32;;
7171;SDS011;3627;46.544;14.944;2023-04-08T00:30:52;8.25;;;7.07;;
7171;SDS011;3627;46.544;14.944;2023-04-08T00:33:19;8.73;;;6.68;;
7171;SDS011;3627;46.544;14.944;2023-04-08T00:35:46;9.85;;;7.28;;
7171;SDS011;3627;46.544;14.944;2023-04-08T00:38:12;8.23;;;6.47;;
7171;SDS011;3627;46.544;14.944;2023-04-08T00:40:38;9.57;;;7.05;;
7171;SDS011;3627;46.544;14.944;2023-04-08T00:43:05;8.65;;;6.47;;
7171;SDS011;3627;46.544;14.944;2023-04-08T00:45:32;8.13;;;5.97;;
7171;SDS011;3627;46.544;14.944;2023-04-08T00:48:00;9.60;;;6.45;;
7171;SDS011;3627;46.544;14.944;2023-04-08T00:50:26;8.82;;;7.47;;
7171;SDS011;3627;46.544;14.944;2023-04-08T00:52:52;13.10;;;7.35;;
7171;SDS011;3627;46.544;14.944;2023-04-08T00:55:19;9.05;;;6.93;;
7171;SDS011;3627;46.544;14.944;2023-04-08T00:57:45;10.48;;;6.72;;
7171;SDS011;3627;46.544;14.944;2023-04-08T01:00:12;11.05;;;7.43;;
7171;SDS011;3627;46.544;14.944;2023-04-08T01:02:41;9.20;;;6.90;;
7171;SDS011;3627;46.544;14.944;2023-04-08T01:05:13;7.70;;;6.20;;
7171;SDS011;3627;46.544;14.944;2023-04-08T01:07:41;8.85;;;6.25;;
7171;SDS011;3627;46.544;14.944;2023-04-08T01:10:11;12.23;;;7.05;;
7171;SDS011;3627;46.544;14.944;2023-04-08T01:12:39;11.85;;;5.95;;
7171;SDS011;3627;46.544;14.944;2023-04-08T01:15:07;8.00;;;6.70;;
7171;SDS011;3627;46.544;14.944;2023-04-08T01:17:35;9.32;;;5.88;;
7171;SDS011;3627;46.544;14.944;2023-04-08T01:20:03;10.88;;;6.72;;
7171;SDS011;3627;46.544;14.944;2023-04-08T01:22:33;9.50;;;6.75;;
7171;SDS011;3627;46.544;14.944;2023-04-08T01:25:04;7.32;;;6.15;;
7171;SDS011;3627;46.544;14.944;2023-04-08T01:27:33;10.30;;;7.15;;
7171;SDS011;3627;46.544;14.944;2023-04-08T01:30:00;8.95;;;7.05;;
7171;SDS011;3627;46.544;14.944;2023-04-08T01:32:28;8.13;;;6.43;;
7171;SDS011;3627;46.544;14.944;2023-04-08T01:34:55;9.48;;;6.32;;
7171;SDS011;3627;46.544;14.944;2023-04-08T01:37:22;12.07;;;7.18;;
7171;SDS011;3627;46.544;14.944;2023-04-08T01:39:50;8.20;;;7.20;;
7171;SDS011;3627;46.544;14.944;2023-04-08T01:42:17;9.43;;;7.38;;
7171;SDS011;3627;46.544;14.944;2023-04-08T01:44:45;9.07;;;7.45;;
7171;SDS011;3627;46.544;14.944;2023-04-08T01:47:12;8.80;;;7.25;;
7171;SDS011;3627;46.544;14.944;2023-04-08T01:49:38;6.90;;;6.20;;
7171;SDS011;3627;46.544;14.944;2023-04-08T01:52:05;7.97;;;6.07;;
7171;SDS011;3627;46.544;14.944;2023-04-08T01:54:32;6.80;;;5.78;;
7171;SDS011;3627;46.544;14.944;2023-04-08T01:56:59;7.75;;;6.45;;
7171;SDS011;3627;46.544;14.944;2023-04-08T01:59:27;9.40;;;6.65;;
7171;SDS011;3627;46.544;14.944;2023-04-08T02:01:56;8.15;;;6.32;;
7171;SDS011;3627;46.544;14.944;2023-04-08T02:04:23;8.30;;;6.53;;
7171;SDS011;3627;46.544;14.944;2023-04-08T02:06:49;8.45;;;7.47;;
7171;SDS011;3627;46.544;14.944;2023-04-08T02:09:16;8.52;;;6.75;;
7171;SDS011;3627;46.544;14.944;2023-04-08T02:11:42;8.88;;;7.65;;
7171;SDS011;3627;46.544;14.944;2023-04-08T02:14:08;8.32;;;6.75;;
7171;SDS011;3627;46.544;14.944;2023-04-08T02:16:37;8.02;;;6.72;;
7171;SDS011;3627;46.544;14.944;2023-04-08T02:19:07;9.48;;;6.78;;
7171;SDS011;3627;46.544;14.944;2023-04-08T02:21:35;9.15;;;7.32;;
7171;SDS011;3627;46.544;14.944;2023-04-08T02:24:04;9.88;;;7.05;;
7171;SDS011;3627;46.544;14.944;2023-04-08T02:26:33;8.65;;;7.05;;
7171;SDS011;3627;46.544;14.944;2023-04-08T02:29:01;9.57;;;6.20;;
7171;SDS011;3627;46.544;14.944;2023-04-08T02:31:29;8.15;;;6.60;;
7171;SDS011;3627;46.544;14.944;2023-04-08T02:33:55;10.60;;;6.80;;
7171;SDS011;3627;46.544;14.944;2023-04-08T02:36:24;8.70;;;6.47;;
7171;SDS011;3627;46.544;14.944;2023-04-08T02:38:50;7.97;;;6.80;;
7171;SDS011;3627;46.544;14.944;2023-04-08T02:41:17;7.07;;;6.38;;
7171;SDS011;3627;46.544;14.944;2023-04-08T02:43:43;9.52;;;7.05;;
7171;SDS011;3627;46.544;14.944;2023-04-08T02:46:11;10.40;;;7.63;;
7171;SDS011;3627;46.544;14.944;2023-04-08T02:48:38;8.13;;;7.30;;
7171;SDS011;3627;46.544;14.944;2023-04-08T02:51:04;8.82;;;6.93;;
7171;SDS011;3627;46.544;14.944;2023-04-08T02:53:32;8.32;;;6.65;;
7171;SDS011;3627;46.544;14.944;2023-04-08T02:55:58;10.65;;;6.90;;
7171;SDS011;3627;46.544;14.944;2023-04-08T02:58:25;8.30;;;7.43;;
7171;SDS011;3627;46.544;14.944;2023-04-08T03:00:51;8.48;;;6.97;;
7171;SDS011;3627;46.544;14.944;2023-04-08T03:03:18;10.02;;;6.78;;
7171;SDS011;3627;46.544;14.944;2023-04-08T03:05:44;8.90;;;7.22;;
7171;SDS011;3627;46.544;14.944;2023-04-08T03:08:10;10.55;;;6.85;;
7171;SDS011;3627;46.544;14.944;2023-04-08T03:10:38;8.18;;;6.70;;
7171;SDS011;3627;46.544;14.944;2023-04-08T03:13:04;8.48;;;7.25;;
7171;SDS011;3627;46.544;14.944;2023-04-08T03:15:31;8.90;;;6.60;;
7171;SDS011;3627;46.544;14.944;2023-04-08T03:17:57;11.73;;;7.28;;
7171;SDS011;3627;46.544;14.944;2023-04-08T03:20:23;10.45;;;7.60;;
7171;SDS011;3627;46.544;14.944;2023-04-08T03:22:50;8.38;;;7.07;;
7171;SDS011;3627;46.544;14.944;2023-04-08T03:25:16;9.80;;;7.15;;
7171;SDS011;3627;46.544;14.944;2023-04-08T03:27:44;8.70;;;7.00;;
7171;SDS011;3627;46.544;14.944;2023-04-08T03:30:10;10.68;;;7.07;;
7171;SDS011;3627;46.544;14.944;2023-04-08T03:32:37;8.93;;;7.13;;
7171;SDS011;3627;46.544;14.944;2023-04-08T03:35:04;7.93;;;7.13;;
7171;SDS011;3627;46.544;14.944;2023-04-08T03:37:31;10.73;;;8.10;;
7171;SDS011;3627;46.544;14.944;2023-04-08T03:39:57;7.97;;;6.57;;
7171;SDS011;3627;46.544;14.944;2023-04-08T03:42:23;7.93;;;7.13;;
7171;SDS011;3627;46.544;14.944;2023-04-08T03:44:51;9.82;;;8.20;;
7171;SDS011;3627;46.544;14.944;2023-04-08T03:47:17;12.10;;;8.55;;
7171;SDS011;3627;46.544;14.944;2023-04-08T03:49:44;12.95;;;7.03;;
7171;SDS011;3627;46.544;14.944;2023-04-08T03:52:10;9.85;;;7.18;;
7171;SDS011;3627;46.544;14.944;2023-04-08T03:54:36;12.23;;;8.02;;
7171;SDS011;3627;46.544;14.944;2023-04-08T03:57:03;9.27;;;6.82;;
7171;SDS011;3627;46.544;14.944;2023-04-08T03:59:29;9.70;;;7.45;;
7171;SDS011;3627;46.544;14.944;2023-04-08T04:01:57;13.13;;;8.88;;
7171;SDS011;3627;46.544;14.944;2023-04-08T04:04:23;11.00;;;8.00;;
7171;SDS011;3627;46.544;14.944;2023-04-08T04:06:50;9.23;;;7.45;;
7171;SDS011;3627;46.544;14.944;2023-04-08T04:09:16;11.13;;;7.70;;
7171;SDS011;3627;46.544;14.944;2023-04-08T04:11:43;12.38;;;9.15;;
7171;SDS011;3627;46.544;14.944;2023-04-08T04:14:09;12.65;;;8.73;;
7171;SDS011;3627;46.544;14.944;2023-04-08T04:16:35;11.88;;;9.77;;
7171;SDS011;3627;46.544;14.944;2023-04-08T04:19:03;10.18;;;9.05;;
7171;SDS011;3627;46.544;14.944;2023-04-08T04:21:30;12.60;;;8.90;;
7171;SDS011;3627;46.544;14.944;2023-04-08T04:23:56;12.90;;;9.02;;
7171;SDS011;3627;46.544;14.944;2023-04-08T04:26:22;10.10;;;8.38;;
7171;SDS011;3627;46.544;14.944;2023-04-08T04:28:49;9.32;;;7.93;;
7171;SDS011;3627;46.544;14.944;2023-04-08T04:31:19;9.30;;;7.53;;
7171;SDS011;3627;46.544;14.944;2023-04-08T04:33:46;10.48;;;7.65;;
7171;SDS011;3627;46.544;14.944;2023-04-08T04:36:14;8.85;;;7.63;;
7171;SDS011;3627;46.544;14.944;2023-04-08T04:38:40;9.52;;;7.68;;
7171;SDS011;3627;46.544;14.944;2023-04-08T04:41:07;11.25;;;8.43;;
7171;SDS011;3627;46.544;14.944;2023-04-08T04:43:34;20.13;;;12.65;;
7171;SDS011;3627;46.544;14.944;2023-04-08T04:46:00;17.63;;;11.45;;
7171;SDS011;3627;46.544;14.944;2023-04-08T04:48:28;12.90;;;9.07;;
7171;SDS011;3627;46.544;14.944;2023-04-08T04:50:55;14.02;;;9.48;;
7171;SDS011;3627;46.544;14.944;2023-04-08T04:53:23;19.73;;;11.68;;
7171;SDS011;3627;46.544;14.944;2023-04-08T04:55:50;308.45;;;106.45;;
7171;SDS011;3627;46.544;14.944;2023-04-08T04:58:16;233.88;;;85.47;;
7171;SDS011;3627;46.544;14.944;2023-04-08T05:00:42;459.88;;;174.82;;
7171;SDS011;3627;46.544;14.944;2023-04-08T05:03:09;291.13;;;101.03;;
7171;SDS011;3627;46.544;14.944;2023-04-08T05:05:35;705.05;;;312.40;;
7171;SDS011;3627;46.544;14.944;2023-04-08T05:08:01;405.33;;;154.52;;
7171;SDS011;3627;46.544;14.944;2023-04-08T05:10:29;308.40;;;124.53;;
7171;SDS011;3627;46.544;14.944;2023-04-08T05:12:56;255.13;;;104.38;;
7171;SDS011;3627;46.544;14.944;2023-04-08T05:15:22;176.27;;;73.47;;
7171;SDS011;3627;46.544;14.944;2023-04-08T05:17:48;96.50;;;39.10;;
7171;SDS011;3627;46.544;14.944;2023-04-08T05:20:15;69.90;;;31.10;;
7171;SDS011;3627;46.544;14.944;2023-04-08T05:22:41;88.30;;;32.88;;
7171;SDS011;3627;46.544;14.944;2023-04-08T05:25:09;99.40;;;37.10;;
7171;SDS011;3627;46.544;14.944;2023-04-08T05:27:37;89.30;;;40.75;;
7171;SDS011;3627;46.544;14.944;2023-04-08T05:30:05;124.20;;;49.28;;
7171;SDS011;3627;46.544;14.944;2023-04-08T05:32:32;103.30;;;46.42;;
7171;SDS011;3627;46.544;14.944;2023-04-08T05:35:00;108.32;;;44.67;;
7171;SDS011;3627;46.544;14.944;2023-04-08T05:37:27;90.80;;;39.55;;
7171;SDS011;3627;46.544;14.944;2023-04-08T05:39:53;90.30;;;38.28;;
7171;SDS011;3627;46.544;14.944;2023-04-08T05:42:19;67.05;;;33.97;;
7171;SDS011;3627;46.544;14.944;2023-04-08T05:44:47;47.97;;;29.13;;
7171;SDS011;3627;46.544;14.944;2023-04-08T05:47:14;42.97;;;25.88;;
7171;SDS011;3627;46.544;14.944;2023-04-08T05:49:40;40.45;;;25.08;;
7171;SDS011;3627;46.544;14.944;2023-04-08T05:52:07;34.55;;;23.40;;
7171;SDS011;3627;46.544;14.944;2023-04-08T05:54:33;36.38;;;23.35;;
7171;SDS011;3627;46.544;14.944;2023-04-08T05:56:59;33.83;;;20.65;;
7171;SDS011;3627;46.544;14.944;2023-04-08T05:59:26;73.35;;;35.47;;
7171;SDS011;3627;46.544;14.944;2023-04-08T06:01:53;121.22;;;45.60;;
7171;SDS011;3627;46.544;14.944;2023-04-08T06:04:20;68.90;;;32.50;;
7171;SDS011;3627;46.544;14.944;2023-04-08T06:06:47;29.02;;;16.33;;
7171;SDS011;3627;46.544;14.944;2023-04-08T06:09:13;19.42;;;11.25;;
7171;SDS011;3627;46.544;14.944;2023-04-08T06:11:40;27.85;;;14.68;;
7171;SDS011;3627;46.544;14.944;2023-04-08T06:14:06;55.63;;;29.67;;
7171;SDS011;3627;46.544;14.944;2023-04-08T06:16:32;53.67;;;23.92;;
7171;SDS011;3627;46.544;14.944;2023-04-08T06:19:00;109.90;;;39.97;;
7171;SDS011;3627;46.544;14.944;2023-04-08T06:21:26;118.72;;;41.08;;
7171;SDS011;3627;46.544;14.944;2023-04-08T06:23:53;78.15;;;34.67;;
7171;SDS011;3627;46.544;14.944;2023-04-08T06:26:19;49.80;;;25.45;;
7171;SDS011;3627;46.544;14.944;2023-04-08T06:28:46;46.33;;;27.23;;
7171;SDS011;3627;46.544;14.944;2023-04-08T06:31:12;64.38;;;36.85;;
7171;SDS011;3627;46.544;14.944;2023-04-08T06:33:38;83.95;;;44.58;;
7171;SDS011;3627;46.544;14.944;2023-04-08T06:36:07;67.60;;;39.20;;
7171;SDS011;3627;46.544;14.944;2023-04-08T06:38:33;61.80;;;37.30;;
7171;SDS011;3627;46.544;14.944;2023-04-08T06:41:02;59.20;;;36.88;;
7171;SDS011;3627;46.544;14.944;2023-04-08T06:43:29;54.47;;;31.58;;
7171;SDS011;3627;46.544;14.944;2023-04-08T06:45:55;45.47;;;27.42;;
7171;SDS011;3627;46.544;14.944;2023-04-08T06:48:22;38.50;;;23.20;;
7171;SDS011;3627;46.544;14.944;2023-04-08T06:50:52;38.58;;;24.65;;
7171;SDS011;3627;46.544;14.944;2023-04-08T06:53:20;43.22;;;26.88;;
7171;SDS011;3627;46.544;14.944;2023-04-08T06:55:47;40.67;;;25.15;;
7171;SDS011;3627;46.544;14.944;2023-04-08T06:58:13;58.63;;;34.60;;
7171;SDS011;3627;46.544;14.944;2023-04-08T07:00:40;54.40;;;30.50;;
7171;SDS011;3627;46.544;14.944;2023-04-08T07:03:07;43.97;;;25.25;;
7171;SDS011;3627;46.544;14.944;2023-04-08T07:05:34;47.50;;;29.27;;
7171;SDS011;3627;46.544;14.944;2023-04-08T07:08:00;35.00;;;23.40;;
7171;SDS011;3627;46.544;14.944;2023-04-08T07:10:28;42.17;;;28.73;;
7171;SDS011;3627;46.544;14.944;2023-04-08T07:12:55;43.30;;;27.10;;
7171;SDS011;3627;46.544;14.944;2023-04-08T07:15:21;45.05;;;27.98;;
7171;SDS011;3627;46.544;14.944;2023-04-08T07:17:48;44.78;;;27.65;;
7171;SDS011;3627;46.544;14.944;2023-04-08T07:20:14;48.58;;;31.63;;
7171;SDS011;3627;46.544;14.944;2023-04-08T07:22:40;47.50;;;27.95;;
7171;SDS011;3627;46.544;14.944;2023-04-08T07:25:07;38.65;;;27.33;;
7171;SDS011;3627;46.544;14.944;2023-04-08T07:27:35;41.95;;;26.05;;
7171;SDS011;3627;46.544;14.944;2023-04-08T07:30:01;37.47;;;26.60;;
7171;SDS011;3627;46.544;14.944;2023-04-08T07:32:28;42.38;;;26.17;;
7171;SDS011;3627;46.544;14.944;2023-04-08T07:34:54;36.47;;;24.35;;
7171;SDS011;3627;46.544;14.944;2023-04-08T07:37:20;39.47;;;25.90;;
7171;SDS011;3627;46.544;14.944;2023-04-08T07:39:47;44.25;;;27.95;;
7171;SDS011;3627;46.544;14.944;2023-04-08T07:42:13;42.47;;;27.13;;
7171;SDS011;3627;46.544;14.944;2023-04-08T07:44:41;42.33;;;26.13;;
7171;SDS011;3627;46.544;14.944;2023-04-08T07:47:07;42.47;;;28.85;;
7171;SDS011;3627;46.544;14.944;2023-04-08T07:49:34;50.20;;;29.13;;
7171;SDS011;3627;46.544;14.944;2023-04-08T07:52:00;46.45;;;27.13;;
7171;SDS011;3627;46.544;14.944;2023-04-08T07:54:27;37.33;;;27.13;;
7171;SDS011;3627;46.544;14.944;2023-04-08T07:56:53;38.47;;;27.75;;
7171;SDS011;3627;46.544;14.944;2023-04-08T07:59:19;42.03;;;26.70;;
7171;SDS011;3627;46.544;14.944;2023-04-08T08:01:47;46.30;;;26.10;;
7171;SDS011;3627;46.544;14.944;2023-04-08T08:04:14;39.90;;;26.15;;
7171;SDS011;3627;46.544;14.944;2023-04-08T08:06:40;42.22;;;27.05;;
7171;SDS011;3627;46.544;14.944;2023-04-08T08:09:07;35.50;;;22.77;;
7171;SDS011;3627;46.544;14.944;2023-04-08T08:11:33;37.88;;;23.23;;
7171;SDS011;3627;46.544;14.944;2023-04-08T08:13:59;80.80;;;42.90;;
7171;SDS011;3627;46.544;14.944;2023-04-08T08:16:27;76.63;;;41.58;;
7171;SDS011;3627;46.544;14.944;2023-04-08T08:18:54;56.83;;;34.67;;
7171;SDS011;3627;46.544;14.944;2023-04-08T08:21:21;52.03;;;30.52;;
7171;SDS011;3627;46.544;14.944;2023-04-08T08:23:47;49.45;;;29.88;;
7171;SDS011;3627;46.544;14.944;2023-04-08T08:26:13;32.70;;;21.73;;
7171;SDS011;3627;46.544;14.944;2023-04-08T08:28:40;34.75;;;19.77;;
7171;SDS011;3627;46.544;14.944;2023-04-08T08:31:07;37.25;;;22.88;;
7171;SDS011;3627;46.544;14.944;2023-04-08T08:33:33;38.78;;;26.02;;
7171;SDS011;3627;46.544;14.944;2023-04-08T08:36:01;40.80;;;24.73;;
7171;SDS011;3627;46.544;14.944;2023-04-08T08:38:29;45.90;;;25.27;;
7171;SDS011;3627;46.544;14.944;2023-04-08T08:40:55;39.00;;;25.17;;
7171;SDS011;3627;46.544;14.944;2023-04-08T08:43:22;38.60;;;22.23;;
7171;SDS011;3627;46.544;14.944;2023-04-08T08:45:48;32.47;;;19.88;;
7171;SDS011;3627;46.544;14.944;2023-04-08T08:48:15;27.95;;;19.10;;
7171;SDS011;3627;46.544;14.944;2023-04-08T08:50:41;25.38;;;16.45;;
7171;SDS011;3627;46.544;14.944;2023-04-08T08:53:09;24.98;;;15.90;;
7171;SDS011;3627;46.544;14.944;2023-04-08T08:55:36;24.13;;;15.82;;
7171;SDS011;3627;46.544;14.944;2023-04-08T08:58:03;23.13;;;17.77;;
7171;SDS011;3627;46.544;14.944;2023-04-08T09:00:31;28.85;;;18.52;;
7171;SDS011;3627;46.544;14.944;2023-04-08T09:03:10;22.90;;;16.83;;
7171;SDS011;3627;46.544;14.944;2023-04-08T09:05:43;25.00;;;16.30;;
7171;SDS011;3627;46.544;14.944;2023-04-08T09:08:23;26.27;;;17.08;;
7171;SDS011;3627;46.544;14.944;2023-04-08T09:10:49;26.27;;;17.15;;
7171;SDS011;3627;46.544;14.944;2023-04-08T09:13:16;23.20;;;15.35;;
7171;SDS011;3627;46.544;14.944;2023-04-08T09:15:56;25.58;;;16.73;;
7171;SDS011;3627;46.544;14.944;2023-04-08T09:18:25;24.73;;;16.60;;
7171;SDS011;3627;46.544;14.944;2023-04-08T09:20:52;25.05;;;16.95;;
7171;SDS011;3627;46.544;14.944;2023-04-08T09:23:18;20.17;;;16.10;;
7171;SDS011;3627;46.544;14.944;2023-04-08T09:25:46;24.00;;;16.77;;
7171;SDS011;3627;46.544;14.944;2023-04-08T09:28:17;26.88;;;16.42;;
7171;SDS011;3627;46.544;14.944;2023-04-08T09:30:44;23.63;;;16.70;;
7171;SDS011;3627;46.544;14.944;2023-04-08T09:33:10;24.20;;;16.33;;
7171;SDS011;3627;46.544;14.944;2023-04-08T09:35:37;23.48;;;15.98;;
7171;SDS011;3627;46.544;14.944;2023-04-08T09:38:03;28.98;;;16.77;;
7171;SDS011;3627;46.544;14.944;2023-04-08T09:40:30;25.20;;;17.40;;
7171;SDS011;3627;46.544;14.944;2023-04-08T09:43:00;25.90;;;17.23;;
7171;SDS011;3627;46.544;14.944;2023-04-08T09:45:30;25.02;;;16.60;;
7171;SDS011;3627;46.544;14.944;2023-04-08T09:48:00;22.98;;;16.48;;
7171;SDS011;3627;46.544;14.944;2023-04-08T09:50:30;24.35;;;16.50;;
7171;SDS011;3627;46.544;14.944;2023-04-08T09:52:59;24.10;;;16.55;;
7171;SDS011;3627;46.544;14.944;2023-04-08T09:55:26;24.58;;;16.60;;
7171;SDS011;3627;46.544;14.944;2023-04-08T09:57:57;24.52;;;16.67;;
7171;SDS011;3627;46.544;14.944;2023-04-08T10:00:29;25.08;;;17.45;;
7171;SDS011;3627;46.544;14.944;2023-04-08T10:03:00;23.33;;;16.77;;
7171;SDS011;3627;46.544;14.944;2023-04-08T10:05:28;25.35;;;17.52;;
7171;SDS011;3627;46.544;14.944;2023-04-08T10:07:55;23.38;;;17.42;;
7171;SDS011;3627;46.544;14.944;2023-04-08T10:10:22;22.00;;;15.52;;
7171;SDS011;3627;46.544;14.944;2023-04-08T10:12:49;23.13;;;17.10;;
7171;SDS011;3627;46.544;14.944;2023-04-08T10:15:27;23.50;;;17.38;;
7171;SDS011;3627;46.544;14.944;2023-04-08T10:17:54;22.48;;;16.45;;
7171;SDS011;3627;46.544;14.944;2023-04-08T10:23:06;27.15;;;16.80;;
7171;SDS011;3627;46.544;14.944;2023-04-08T10:25:33;26.77;;;19.60;;
7171;SDS011;3627;46.544;14.944;2023-04-08T10:28:00;34.22;;;20.38;;
7171;SDS011;3627;46.544;14.944;2023-04-08T10:30:41;26.42;;;18.77;;
7171;SDS011;3627;46.544;14.944;2023-04-08T10:33:11;31.45;;;20.45;;
7171;SDS011;3627;46.544;14.944;2023-04-08T10:35:40;22.95;;;16.73;;
7171;SDS011;3627;46.544;14.944;2023-04-08T10:38:07;24.83;;;16.55;;
7171;SDS011;3627;46.544;14.944;2023-04-08T10:40:34;33.20;;;19.10;;
7171;SDS011;3627;46.544;14.944;2023-04-08T10:43:01;27.95;;;17.38;;
7171;SDS011;3627;46.544;14.944;2023-04-08T10:45:28;24.67;;;16.67;;
7171;SDS011;3627;46.544;14.944;2023-04-08T10:47:55;22.17;;;17.23;;
7171;SDS011;3627;46.544;14.944;2023-04-08T10:50:22;23.60;;;17.00;;
7171;SDS011;3627;46.544;14.944;2023-04-08T10:52:49;23.60;;;17.20;;
7171;SDS011;3627;46.544;14.944;2023-04-08T10:55:19;21.70;;;16.45;;
7171;SDS011;3627;46.544;14.944;2023-04-08T10:57:47;21.65;;;16.40;;
7171;SDS011;3627;46.544;14.944;2023-04-08T11:00:16;22.60;;;16.55;;
7171;SDS011;3627;46.544;14.944;2023-04-08T11:02:42;25.00;;;17.20;;
7171;SDS011;3627;46.544;14.944;2023-04-08T11:05:10;28.30;;;20.23;;
7171;SDS011;3627;46.544;14.944;2023-04-08T11:07:38;27.98;;;20.08;;
7171;SDS011;3627;46.544;14.944;2023-04-08T11:10:06;26.35;;;20.50;;
7171;SDS011;3627;46.544;14.944;2023-04-08T11:12:32;25.15;;;19.08;;
7171;SDS011;3627;46.544;14.944;2023-04-08T11:15:00;31.00;;;21.65;;
7171;SDS011;3627;46.544;14.944;2023-04-08T11:17:26;24.60;;;17.67;;
7171;SDS011;3627;46.544;14.944;2023-04-08T11:19:53;23.35;;;16.77;;
7171;SDS011;3627;46.544;14.944;2023-04-08T11:22:21;19.10;;;15.00;;
7171;SDS011;3627;46.544;14.944;2023-04-08T11:24:48;17.58;;;13.68;;
7171;SDS011;3627;46.544;14.944;2023-04-08T11:27:14;23.08;;;17.75;;
7171;SDS011;3627;46.544;14.944;2023-04-08T11:29:41;26.40;;;19.15;;
7171;SDS011;3627;46.544;14.944;2023-04-08T11:32:09;23.65;;;17.80;;
7171;SDS011;3627;46.544;14.944;2023-04-08T11:34:37;21.30;;;16.60;;
7171;SDS011;3627;46.544;14.944;2023-04-08T11:37:04;20.55;;;16.77;;
7171;SDS011;3627;46.544;14.944;2023-04-08T11:39:32;26.27;;;18.30;;
7171;SDS011;3627;46.544;14.944;2023-04-08T11:41:58;24.70;;;17.48;;
7171;SDS011;3627;46.544;14.944;2023-04-08T11:44:29;27.33;;;19.75;;
7171;SDS011;3627;46.544;14.944;2023-04-08T11:46:55;28.65;;;19.23;;
7171;SDS011;3627;46.544;14.944;2023-04-08T11:49:22;25.48;;;18.65;;
7171;SDS011;3627;46.544;14.944;2023-04-08T11:51:53;24.17;;;18.70;;
7171;SDS011;3627;46.544;14.944;2023-04-08T11:54:26;25.63;;;19.05;;
7171;SDS011;3627;46.544;14.944;2023-04-08T11:56:54;28.15;;;19.77;;
7171;SDS011;3627;46.544;14.944;2023-04-08T11:59:22;25.02;;;18.52;;
7171;SDS011;3627;46.544;14.944;2023-04-08T12:01:50;24.70;;;17.15;;
7171;SDS011;3627;46.544;14.944;2023-04-08T12:04:16;26.48;;;18.25;;
7171;SDS011;3627;46.544;14.944;2023-04-08T12:06:43;24.55;;;18.25;;
7171;SDS011;3627;46.544;14.944;2023-04-08T12:09:11;23.75;;;17.38;;
7171;SDS011;3627;46.544;14.944;2023-04-08T12:11:37;23.40;;;16.58;;
7171;SDS011;3627;46.544;14.944;2023-04-08T12:14:05;22.35;;;15.77;;
7171;SDS011;3627;46.544;14.944;2023-04-08T12:16:31;22.13;;;16.38;;
7171;SDS011;3627;46.544;14.944;2023-04-08T12:18:57;23.73;;;16.00;;
7171;SDS011;3627;46.544;14.944;2023-04-08T12:21:24;17.88;;;14.52;;
7171;SDS011;3627;46.544;14.944;2023-04-08T12:23:51;21.73;;;13.90;;
7171;SDS011;3627;46.544;14.944;2023-04-08T12:26:18;15.90;;;12.18;;
7171;SDS011;3627;46.544;14.944;2023-04-08T12:28:44;17.65;;;13.30;;
7171;SDS011;3627;46.544;14.944;2023-04-08T12:31:12;18.80;;;13.23;;
7171;SDS011;3627;46.544;14.944;2023-04-08T12:33:38;17.45;;;13.27;;
7171;SDS011;3627;46.544;14.944;2023-04-08T12:36:05;15.20;;;12.05;;
7171;SDS011;3627;46.544;14.944;2023-04-08T12:38:31;12.68;;;11.02;;
7171;SDS011;3627;46.544;14.944;2023-04-08T12:40:58;11.82;;;9.23;;
7171;SDS011;3627;46.544;14.944;2023-04-08T12:43:24;15.90;;;10.00;;
7171;SDS011;3627;46.544;14.944;2023-04-08T12:45:51;13.68;;;10.10;;
7171;SDS011;3627;46.544;14.944;2023-04-08T12:48:19;32.78;;;17.75;;
7171;SDS011;3627;46.544;14.944;2023-04-08T12:50:45;11.27;;;9.25;;
7171;SDS011;3627;46.544;14.944;2023-04-08T12:53:11;11.70;;;8.63;;
7171;SDS011;3627;46.544;14.944;2023-04-08T12:55:38;11.38;;;8.10;;
7171;SDS011;3627;46.544;14.944;2023-04-08T12:58:04;11.02;;;8.35;;
7171;SDS011;3627;46.544;14.944;2023-04-08T13:00:31;11.90;;;8.35;;
7171;SDS011;3627;46.544;14.944;2023-04-08T13:02:57;9.77;;;8.35;;
7171;SDS011;3627;46.544;14.944;2023-04-08T13:05:25;11.32;;;8.45;;
7171;SDS011;3627;46.544;14.944;2023-04-08T13:07:51;12.15;;;9.25;;
7171;SDS011;3627;46.544;14.944;2023-04-08T13:10:18;12.25;;;9.20;;
7171;SDS011;3627;46.544;14.944;2023-04-08T13:12:44;15.52;;;11.40;;
7171;SDS011;3627;46.544;14.944;2023-04-08T13:15:11;17.88;;;11.65;;
7171;SDS011;3627;46.544;14.944;2023-04-08T13:17:37;15.57;;;11.60;;
7171;SDS011;3627;46.544;14.944;2023-04-08T13:20:04;17.05;;;12.43;;
7171;SDS011;3627;46.544;14.944;2023-04-08T13:22:33;15.77;;;12.30;;
7171;SDS011;3627;46.544;14.944;2023-04-08T13:25:00;14.50;;;11.70;;
7171;SDS011;3627;46.544;14.944;2023-04-08T13:27:26;15.40;;;11.43;;
7171;SDS011;3627;46.544;14.944;2023-04-08T13:29:53;15.48;;;11.88;;
7171;SDS011;3627;46.544;14.944;2023-04-08T13:32:20;15.60;;;12.65;;
7171;SDS011;3627;46.544;14.944;2023-04-08T13:34:46;16.83;;;12.30;;
7171;SDS011;3627;46.544;14.944;2023-04-08T13:37:12;19.30;;;12.45;;
7171;SDS011;3627;46.544;14.944;2023-04-08T13:39:40;21.45;;;13.88;;
7171;SDS011;3627;46.544;14.944;2023-04-08T13:42:06;16.80;;;11.98;;
7171;SDS011;3627;46.544;14.944;2023-04-08T13:44:33;20.05;;;13.68;;
7171;SDS011;3627;46.544;14.944;2023-04-08T13:46:59;26.42;;;16.70;;
7171;SDS011;3627;46.544;14.944;2023-04-08T13:49:26;14.63;;;12.32;;
7171;SDS011;3627;46.544;14.944;2023-04-08T13:51:52;25.25;;;16.70;;
7171;SDS011;3627;46.544;14.944;2023-04-08T13:54:19;17.08;;;12.32;;
7171;SDS011;3627;46.544;14.944;2023-04-08T13:56:47;18.48;;;12.52;;
7171;SDS011;3627;46.544;14.944;2023-04-08T13:59:13;15.52;;;11.45;;
7171;SDS011;3627;46.544;14.944;2023-04-08T14:01:39;21.90;;;14.10;;
7171;SDS011;3627;46.544;14.944;2023-04-08T14:04:06;60.05;;;29.80;;
7171;SDS011;3627;46.544;14.944;2023-04-08T14:06:32;37.63;;;21.75;;
7171;SDS011;3627;46.544;14.944;2023-04-08T14:09:00;18.38;;;13.90;;
7171;SDS011;3627;46.544;14.944;2023-04-08T14:11:26;34.80;;;18.77;;
7171;SDS011;3627;46.544;14.944;2023-04-08T14:13:54;28.65;;;17.23;;
7171;SDS011;3627;46.544;14.944;2023-04-08T14:16:20;61.25;;;27.83;;
7171;SDS011;3627;46.544;14.944;2023-04-08T14:18:47;27.42;;;16.42;;
7171;SDS011;3627;46.544;14.944;2023-04-08T14:21:13;19.25;;;13.23;;
7171;SDS011;3627;46.544;14.944;2023-04-08T14:23:42;31.83;;;20.80;;
7171;SDS011;3627;46.544;14.944;2023-04-08T14:26:08;14.90;;;12.20;;
7171;SDS011;3627;46.544;14.944;2023-04-08T14:28:34;19.80;;;14.32;;
7171;SDS011;3627;46.544;14.944;2023-04-08T14:31:03;17.73;;;12.30;;
7171;SDS011;3627;46.544;14.944;2023-04-08T14:33:30;19.05;;;13.88;;
7171;SDS011;3627;46.544;14.944;2023-04-08T14:35:56;17.58;;;13.63;;
7171;SDS011;3627;46.544;14.944;2023-04-08T14:38:24;19.27;;;13.95;;
7171;SDS011;3627;46.544;14.944;2023-04-08T14:40:51;17.70;;;13.38;;
7171;SDS011;3627;46.544;14.944;2023-04-08T14:43:18;18.52;;;14.05;;